• Join FlightAware (Why Join?)
  • Login
  • US Flag 
02:47AM EST


 

Airport Tracker/Info


-or-


 

Live Flight TrackerFlight Track Log ✈ N8395Y ✈ 30-Apr-2013 ✈ KUMP - I19

Flight Track Log - Related Links

Times and Time Zones

All times are in EDT time to prevent confusion due to time zone crossing. See the N8395Y flight status page for this flight to view local times or setup timezone preferences in your user account.

Time Position Orientation Groundspeed Altitude Reporting Facility
EDT Latitude Longitude Course Direction KTS MPH feet Rate Location/Type
07:07PM 39.9000 -85.8333 98° East 98 113 3,700  Level Indianapolis TRACON
07:08PM 39.9033 -85.8108 79° East 97 112 4,000 360 Climbing Indianapolis Center
07:09PM 39.8994 -85.7747 98° East 98 113 4,500 480 Climbing Indianapolis Center
07:10PM 39.8936 -85.7394 102° East 99 114 5,100 480 Climbing Indianapolis Center
07:11PM 39.8872 -85.6950 101° East 103 119 5,500 180 Climbing Indianapolis Center
07:12PM 39.9059 -85.7806 98° East  Level Estimated
07:12PM 39.8811 -85.6539 101° East 109 125 5,500  Level Indianapolis Center
07:13PM 39.8742 -85.6100 102° East 117 135 5,500  Level Indianapolis Center
07:14PM 39.8708 -85.5636 95° East 123 142 5,500 -60 Level Indianapolis Center
07:15PM 39.8661 -85.5175 98° East 127 146 5,400 -60 Descending Indianapolis Center
07:16PM 39.8633 -85.4717 94° East 127 146 5,400  Level Indianapolis Center
07:17PM 39.8581 -85.4225 98° East 127 146 5,500 60 Climbing Indianapolis Center
07:18PM 39.8533 -85.3811 98° East 124 143 5,600  Climbing Indianapolis Center
07:19PM 39.8444 -85.3389 105° East 124 143 5,600  Level Indianapolis Center
07:20PM 39.8358 -85.2942 104° East 126 145 5,600 -120 Level Indianapolis Center
07:21PM 39.8294 -85.2469 100° East 132 152 5,400 -120 Descending Indianapolis Center
07:22PM 39.8192 -85.1911 103° East 131 151 5,400  Level Indianapolis Center
07:23PM 39.8142 -85.1575 101° East 123 142 5,400  Level Indianapolis Center
07:23PM 39.8119 -85.1483 108° East 126 145 5,400  Level Indianapolis Center
07:24PM 39.8044 -85.1056 103° East 122 140 5,400 -60 Level Indianapolis Center
07:25PM 39.8108 -85.1000 34° Northeast 141 162 5,300 -120 Descending Indianapolis Center
07:25PM 39.8142 -85.1025 330° Northwest 106 122 5,300 180 Level Indianapolis Center
07:26PM 39.8147 -85.0786 88° East 94 108 5,500 180 Climbing Indianapolis Center
07:26PM 39.8131 -85.0653 99° East 102 117 5,500  Level Indianapolis Center
07:27PM 39.8142 -85.0378 87° East 108 124 5,500  Level Indianapolis Center
07:27PM 39.8144 -85.0219 89° East 115 132 5,500 60 Level Indianapolis Center
07:28PM 39.8136 -84.9942 92° East 119 137 5,600  Climbing Indianapolis Center
07:28PM 39.8150 -84.9811 82° East 114 131 5,500 -120 Descending Indianapolis Center
07:29PM 39.8156 -84.9483 89° East 121 139 5,500  Level Indianapolis Center
07:29PM 39.8164 -84.9353 85° East 122 140 5,500 -120 Level Indianapolis Center
07:30PM 39.8172 -84.9022 88° East 126 145 5,400  Descending Indianapolis Center
07:30PM 39.8172 -84.8875 90° East 122 140 5,500 60 Climbing Indianapolis Center
07:31PM 39.8189 -84.8589 86° East 121 139 5,500 -120 Level Indianapolis Center
07:31PM 39.8172 -84.8442 98° East 120 138 5,400 -120 Descending Indianapolis Center
07:32PM 39.8119 -84.8172 104° East 122 140 5,400  Level Indianapolis Center
07:32PM 39.8075 -84.8014 110° East 120 138 5,400  Level Indianapolis Center
07:33PM 39.8006 -84.7775 111° Southeast 121 139 5,400  Level Indianapolis Center
07:34PM 39.7994 -84.7594 95° East 120 138 5,400  Level Indianapolis Center
07:34PM 39.7958 -84.7333 100° East 118 136 5,400  Level Indianapolis Center
07:35PM 39.7928 -84.7167 103° East 120 138 5,400 -120 Level Indianapolis Center
07:35PM 39.7892 -84.6889 100° East 119 137 5,300  Descending Indianapolis Center
07:36PM 39.7869 -84.6744 101° East 119 137 5,400 60 Climbing Indianapolis Center
07:36PM 39.7842 -84.6475 98° East 117 135 5,400  Level Indianapolis Center
07:37PM 39.7811 -84.6333 106° East 116 133 5,400  Level Indianapolis Center
07:37PM 39.7772 -84.6058 100° East 116 133 5,400  Level Indianapolis Center
07:38PM 39.7758 -84.5917 97° East 116 133 5,400  Level Indianapolis Center
07:38PM 39.7683 -84.5611 108° East 117 135 5,400  Level Indianapolis Center
07:39PM 39.7664 -84.5439 98° East 116 133 5,400  Level Indianapolis Center
07:39PM 39.7633 -84.5197 99° East 113 130 5,400  Level Indianapolis Center
07:40PM 39.7594 -84.5033 107° East 114 131 5,400  Level Indianapolis Center
07:40PM 39.7539 -84.4803 107° East 118 136 5,400  Level Indianapolis Center
07:41PM 39.7478 -84.4639 116° Southeast 115 132 5,400  Level Indianapolis Center
07:41PM 39.7403 -84.4406 113° Southeast 114 131 5,400  Level Indianapolis Center
07:42PM 39.7319 -84.4289 133° Southeast 111 128 5,400  Level Indianapolis Center
07:42PM 39.7189 -84.4186 149° Southeast 110 127 5,400 -120 Level Indianapolis Center
07:43PM 39.7056 -84.4067 145° Southeast 110 127 5,300 -300 Descending Indianapolis Center
07:43PM 39.6914 -84.3958 150° Southeast 116 133 5,100 -420 Descending Indianapolis Center
07:44PM 39.6778 -84.3844 147° Southeast 115 132 4,900 -300 Descending Indianapolis Center
07:44PM 39.6647 -84.3625 128° Southeast 119 137 4,800 -300 Descending Indianapolis Center
07:45PM 39.6578 -84.3492 124° Southeast 121 139 4,600 -480 Descending Indianapolis Center
07:45PM 39.6483 -84.3331 127° Southeast 118 136 4,400 -300 Descending Indianapolis Center
07:46PM 39.6386 -84.3147 125° Southeast 118 136 4,300 -120 Descending Indianapolis Center
07:46PM 39.6281 -84.2978 129° Southeast 119 137 4,300  Level Indianapolis Center
07:47PM 39.6181 -84.2833 132° Southeast 116 133 4,300 60 Level Indianapolis Center
07:47PM 39.6067 -84.2761 154° Southeast 93 107 4,400 -240 Climbing Indianapolis Center
07:48PM 39.5956 -84.2603 132° Southeast 101 116 4,100 -360 Descending Indianapolis Center
07:48PM 39.5986 -84.2453 75° East 101 116 4,000 -300 Descending Indianapolis Center
07:49PM 39.6064 -84.2233 65° Northeast 107 123 3,800 -480 Descending Indianapolis Center
07:49PM 39.6117 -84.2144 52° Northeast 111 128 3,600 -540 Descending Indianapolis Center
07:50PM 39.6219 -84.1878 63° Northeast 110 127 3,300 -540 Descending Indianapolis Center
07:50PM 39.6269 -84.1783 55° Northeast 114 131 3,100 -420 Descending Indianapolis Center
07:51PM 39.6350 -84.1519 68° East 110 127 2,900 -420 Descending Indianapolis Center
07:51PM 39.6364 -84.1417 80° East 107 123 2,700 -240 Descending Indianapolis Center
07:52PM 39.6467 -84.1144 64° Northeast 109 125 2,700  Level Indianapolis Center